MDT,Max TemperatureF,Mean TemperatureF,Min TemperatureF,Max Dew PointF,MeanDew PointF,Min DewpointF,Max Humidity, Mean Humidity, Min Humidity, Max Sea Level PressureIn, Mean Sea Level PressureIn, Min Sea Level PressureIn, Max VisibilityMiles, Mean VisibilityMiles, Min VisibilityMiles, Max Wind SpeedMPH, Mean Wind SpeedMPH, Max Gust SpeedMPH,PrecipitationIn, CloudCover, Events, WindDirDegrees
2012-3-1,43,37,30,30,22,4,92,57,22,29.86,29.82,29.76,10,8,1,25,10,30,T,6,Snow,265
2012-3-2,44,35,25,27,14,-4,92,53,14,30.32,30.04,29.82,10,8,2,25,14,35,T,5,Snow,295
2012-3-3,46,31,15,14,10,6,67,46,25,30.47,30.41,30.32,10,10,10,12,2,17,0.00,0,,70
2012-3-4,53,37,21,20,16,12,74,50,26,30.47,30.37,30.26,10,10,10,12,4,14,0.00,0,,148
2012-3-5,61,43,24,24,21,17,75,49,22,30.28,30.12,29.87,10,10,10,10,2,20,0.00,0,,175
2012-3-6,66,52,37,21,12,1,48,28,8,29.85,29.50,29.25,10,10,10,32,14,41,0.00,0,,177
2012-3-7,55,42,28,34,22,8,69,42,15,30.06,29.67,29.30,10,10,6,25,9,32,0.01,2,Rain,190
2012-3-8,59,44,28,22,12,5,75,44,12,30.43,30.29,30.09,10,10,10,24,9,29,0.00,0,,12
2012-3-9,60,40,20,13,7,3,50,31,11,30.48,30.31,30.13,10,10,10,15,4,20,0.00,0,,289
2012-3-10,61,42,23,20,11,5,46,30,14,30.14,29.99,29.86,10,10,10,13,2,20,0.00,0,,248
2012-3-11,67,46,24,19,12,7,55,33,10,29.89,29.79,29.70,10,10,10,18,6,21,0.00,0,,219
2012-3-12,66,48,30,16,11,6,38,24,10,29.96,29.89,29.75,10,10,10,21,7,28,0.00,0,,209
2012-3-13,69,56,42,15,8,-2,30,19,7,29.95,29.85,29.78,10,10,10,28,11,33,0.00,0,,181
2012-3-14,69,50,30,10,7,3,29,19,8,30.04,29.94,29.85,10,10,10,17,6,24,0.00,1,,218
2012-3-15,72,54,35,19,14,7,35,24,13,30.11,29.99,29.91,10,10,10,15,4,21,0.00,0,,203
2012-3-16,73,55,37,18,15,12,40,25,10,29.92,29.79,29.63,10,10,10,22,9,31,0.00,0,,191
2012-3-17,67,58,48,23,18,15,29,23,16,29.62,29.54,29.39,10,10,9,33,17,45,0.00,2,,167
2012-3-18,59,45,31,39,29,21,78,51,23,29.64,29.46,29.27,10,8,1,43,18,51,0.05,6,Rain-Snow,200
2012-3-19,47,36,25,26,21,12,81,54,26,29.87,29.71,29.63,10,10,10,20,6,22,0.00,3,,225
2012-3-20,50,35,19,23,14,4,88,53,17,30.14,30.05,29.89,10,10,10,14,3,17,0.00,0,,293
2012-3-21,60,42,23,21,15,9,55,38,20,30.19,30.08,29.98,10,10,10,13,3,17,0.00,0,,223
2012-3-22,68,47,26,23,19,12,63,38,13,30.04,29.95,29.85,10,10,10,9,2,13,0.00,0,,304
2012-3-23,77,57,37,22,18,14,44,27,10,30.00,29.90,29.81,10,10,10,22,7,26,0.00,0,,181
2012-3-24,74,54,34,24,21,16,44,28,12,30.01,29.93,29.88,10,10,10,15,5,22,0.00,0,,212
2012-3-25,77,60,42,22,18,13,39,24,9,29.89,29.79,29.66,10,10,10,25,7,31,0.00,0,,163
2012-3-26,62,51,40,20,14,9,29,21,12,29.94,29.74,29.61,10,10,7,41,17,49,0.00,0,,215
2012-3-27,68,48,28,18,15,12,47,31,15,30.08,29.98,29.90,10,10,10,16,3,21,0.00,0,,268
2012-3-28,73,55,37,26,13,1,40,23,6,29.94,29.86,29.78,10,10,10,25,8,31,0.00,0,,215
2012-3-29,70,53,35,27,22,15,46,30,13,29.96,29.88,29.82,10,10,10,16,5,22,0.00,1,,280
2012-3-30,75,56,36,22,20,15,44,29,14,29.95,29.86,29.80,10,10,10,12,3,20,0.00,0,,198
2012-3-31,80,61,42,25,20,14,37,23,9,29.91,29.72,29.54,10,10,10,28,11,36,0.00,0,,209